sensor_id;sensor_type;location;lat;lon;timestamp;pressure;altitude;pressure_sealevel;temperature;humidity
29903;BME280;30288;50.514;9.678;2023-04-07T00:01:20;98728.22;;;6.73;100.00
29903;BME280;30288;50.514;9.678;2023-04-07T00:03:29;98728.22;;;6.75;100.00
29903;BME280;30288;50.514;9.678;2023-04-07T00:05:35;98724.91;;;6.74;100.00
29903;BME280;30288;50.514;9.678;2023-04-07T00:07:40;98726.56;;;6.72;100.00
29903;BME280;30288;50.514;9.678;2023-04-07T00:09:57;98724.91;;;6.71;100.00
29903;BME280;30288;50.514;9.678;2023-04-07T00:12:02;98721.63;;;6.69;100.00
29903;BME280;30288;50.514;9.678;2023-04-07T00:14:08;98724.97;;;6.68;100.00
29903;BME280;30288;50.514;9.678;2023-04-07T00:16:13;98718.28;;;6.69;100.00
29903;BME280;30288;50.514;9.678;2023-04-07T00:18:18;98719.97;;;6.68;100.00
29903;BME280;30288;50.514;9.678;2023-04-07T00:20:26;98721.63;;;6.66;100.00
29903;BME280;30288;50.514;9.678;2023-04-07T00:22:32;98722.53;;;6.64;100.00
29903;BME280;30288;50.514;9.678;2023-04-07T00:24:37;98719.19;;;6.63;100.00
29903;BME280;30288;50.514;9.678;2023-04-07T00:26:42;98716.69;;;6.63;100.00
29903;BME280;30288;50.514;9.678;2023-04-07T00:28:47;98713.34;;;6.61;100.00
29903;BME280;30288;50.514;9.678;2023-04-07T00:30:53;98708.34;;;6.61;100.00
29903;BME280;30288;50.514;9.678;2023-04-07T00:32:58;98708.34;;;6.61;100.00
29903;BME280;30288;50.514;9.678;2023-04-07T00:35:05;98711.69;;;6.63;100.00
29903;BME280;30288;50.514;9.678;2023-04-07T00:37:13;98716.63;;;6.66;100.00
29903;BME280;30288;50.514;9.678;2023-04-07T00:39:18;98711.69;;;6.63;100.00
29903;BME280;30288;50.514;9.678;2023-04-07T00:41:24;98706.72;;;6.60;100.00
29903;BME280;30288;50.514;9.678;2023-04-07T00:43:29;98702.56;;;6.59;100.00
29903;BME280;30288;50.514;9.678;2023-04-07T00:45:36;98703.41;;;6.58;100.00
29903;BME280;30288;50.514;9.678;2023-04-07T00:47:41;98705.06;;;6.56;100.00
29903;BME280;30288;50.514;9.678;2023-04-07T00:49:47;98700.16;;;6.50;100.00
29903;BME280;30288;50.514;9.678;2023-04-07T00:51:53;98700.19;;;6.47;100.00
29903;BME280;30288;50.514;9.678;2023-04-07T00:54:01;98696.84;;;6.51;100.00
29903;BME280;30288;50.514;9.678;2023-04-07T00:56:07;98695.16;;;6.50;100.00
29903;BME280;30288;50.514;9.678;2023-04-07T00:58:12;98688.56;;;6.46;100.00
29903;BME280;30288;50.514;9.678;2023-04-07T01:00:18;98690.13;;;6.53;100.00
29903;BME280;30288;50.514;9.678;2023-04-07T01:02:31;98683.50;;;6.49;100.00
29903;BME280;30288;50.514;9.678;2023-04-07T01:04:44;98679.28;;;6.54;100.00
29903;BME280;30288;50.514;9.678;2023-04-07T01:06:55;98675.19;;;6.47;100.00
29903;BME280;30288;50.514;9.678;2023-04-07T01:09:17;98671.94;;;6.40;100.00
29903;BME280;30288;50.514;9.678;2023-04-07T01:11:27;98676.06;;;6.43;100.00
29903;BME280;30288;50.514;9.678;2023-04-07T01:13:39;98671.91;;;6.42;100.00
29903;BME280;30288;50.514;9.678;2023-04-07T01:15:54;98668.63;;;6.38;100.00
29903;BME280;30288;50.514;9.678;2023-04-07T01:18:12;98671.94;;;6.39;100.00
29903;BME280;30288;50.514;9.678;2023-04-07T01:20:22;98670.34;;;6.35;100.00
29903;BME280;30288;50.514;9.678;2023-04-07T01:22:42;98665.28;;;6.38;100.00
29903;BME280;30288;50.514;9.678;2023-04-07T01:28:40;98664.56;;;6.28;100.00
29903;BME280;30288;50.514;9.678;2023-04-07T01:30:52;98668.72;;;6.31;100.00
29903;BME280;30288;50.514;9.678;2023-04-07T01:33:01;98661.22;;;6.28;100.00
29903;BME280;30288;50.514;9.678;2023-04-07T01:35:12;98668.75;;;6.28;100.00
29903;BME280;30288;50.514;9.678;2023-04-07T01:37:18;98662.16;;;6.21;100.00
29903;BME280;30288;50.514;9.678;2023-04-07T01:39:25;98659.72;;;6.16;100.00
29903;BME280;30288;50.514;9.678;2023-04-07T01:41:32;98660.56;;;6.17;100.00
29903;BME280;30288;50.514;9.678;2023-04-07T01:43:38;98650.56;;;6.17;100.00
29903;BME280;30288;50.514;9.678;2023-04-07T01:45:47;98658.84;;;6.19;100.00
29903;BME280;30288;50.514;9.678;2023-04-07T01:47:55;98648.00;;;6.20;100.00
29903;BME280;30288;50.514;9.678;2023-04-07T01:50:02;98652.16;;;6.21;100.00
29903;BME280;30288;50.514;9.678;2023-04-07T01:52:09;98657.22;;;6.18;100.00
29903;BME280;30288;50.514;9.678;2023-04-07T01:54:15;98654.72;;;6.18;100.00
29903;BME280;30288;50.514;9.678;2023-04-07T01:56:21;98651.44;;;6.12;100.00
29903;BME280;30288;50.514;9.678;2023-04-07T01:58:28;98649.84;;;6.05;100.00
29903;BME280;30288;50.514;9.678;2023-04-07T02:00:34;98650.69;;;6.04;100.00
29903;BME280;30288;50.514;9.678;2023-04-07T02:02:48;98650.66;;;6.06;100.00
29903;BME280;30288;50.514;9.678;2023-04-07T02:05:02;98639.78;;;6.10;100.00
29903;BME280;30288;50.514;9.678;2023-04-07T02:07:17;98639.00;;;6.06;100.00
29903;BME280;30288;50.514;9.678;2023-04-07T02:09:26;98639.06;;;5.99;100.00
29903;BME280;30288;50.514;9.678;2023-04-07T02:11:34;98634.06;;;6.00;100.00
29903;BME280;30288;50.514;9.678;2023-04-07T02:13:40;98634.88;;;6.02;100.00
29903;BME280;30288;50.514;9.678;2023-04-07T02:15:48;98639.03;;;6.03;100.00
29903;BME280;30288;50.514;9.678;2023-04-07T02:17:57;98639.06;;;6.00;100.00
29903;BME280;30288;50.514;9.678;2023-04-07T02:20:08;98635.78;;;5.98;100.00
29903;BME280;30288;50.514;9.678;2023-04-07T02:22:14;98630.78;;;5.95;100.00
29903;BME280;30288;50.514;9.678;2023-04-07T02:24:20;98630.81;;;5.92;100.00
29903;BME280;30288;50.514;9.678;2023-04-07T02:26:26;98635.81;;;5.92;100.00
29903;BME280;30288;50.514;9.678;2023-04-07T02:28:32;98631.66;;;5.93;100.00
29903;BME280;30288;50.514;9.678;2023-04-07T02:30:37;98631.63;;;5.94;100.00
29903;BME280;30288;50.514;9.678;2023-04-07T02:32:43;98628.31;;;5.92;100.00
29903;BME280;30288;50.514;9.678;2023-04-07T02:34:48;98634.22;;;5.88;100.00
29903;BME280;30288;50.514;9.678;2023-04-07T02:36:56;98629.19;;;5.85;100.00
29903;BME280;30288;50.514;9.678;2023-04-07T02:39:02;98629.22;;;5.82;100.00
29903;BME280;30288;50.514;9.678;2023-04-07T02:41:07;98634.22;;;5.82;100.00
29903;BME280;30288;50.514;9.678;2023-04-07T02:43:13;98635.09;;;5.80;100.00
29903;BME280;30288;50.514;9.678;2023-04-07T02:45:20;98621.00;;;5.74;100.00
29903;BME280;30288;50.514;9.678;2023-04-07T02:47:25;98631.00;;;5.74;100.00
29903;BME280;30288;50.514;9.678;2023-04-07T02:49:30;98628.41;;;5.80;100.00
29903;BME280;30288;50.514;9.678;2023-04-07T02:51:35;98628.44;;;5.79;100.00
29903;BME280;30288;50.514;9.678;2023-04-07T02:53:43;98628.41;;;5.82;100.00
29903;BME280;30288;50.514;9.678;2023-04-07T02:55:48;98635.91;;;5.80;100.00
29903;BME280;30288;50.514;9.678;2023-04-07T02:57:53;98630.91;;;5.83;100.00
29903;BME280;30288;50.514;9.678;2023-04-07T03:00:13;98625.97;;;5.77;100.00
29903;BME280;30288;50.514;9.678;2023-04-07T03:02:34;98626.00;;;5.71;100.00
29903;BME280;30288;50.514;9.678;2023-04-07T03:04:41;98629.38;;;5.70;100.00
29903;BME280;30288;50.514;9.678;2023-04-07T03:06:47;98617.69;;;5.72;100.00
29903;BME280;30288;50.514;9.678;2023-04-07T03:08:54;98627.69;;;5.72;100.00
29903;BME280;30288;50.514;9.678;2023-04-07T03:10:59;98625.13;;;5.75;100.00
29903;BME280;30288;50.514;9.678;2023-04-07T03:13:05;98624.34;;;5.73;100.00
29903;BME280;30288;50.514;9.678;2023-04-07T03:15:12;98625.25;;;5.64;100.00
29903;BME280;30288;50.514;9.678;2023-04-07T03:17:21;98623.56;;;5.66;100.00
29903;BME280;30288;50.514;9.678;2023-04-07T03:19:27;98620.28;;;5.63;100.00
29903;BME280;30288;50.514;9.678;2023-04-07T03:21:32;98617.00;;;5.58;100.00
29903;BME280;30288;50.514;9.678;2023-04-07T03:23:37;98617.81;;;5.57;100.00
29903;BME280;30288;50.514;9.678;2023-04-07T03:25:45;98612.84;;;5.57;100.00
29903;BME280;30288;50.514;9.678;2023-04-07T03:27:51;98613.72;;;5.54;100.00
29903;BME280;30288;50.514;9.678;2023-04-07T03:29:57;98612.03;;;5.53;100.00
29903;BME280;30288;50.514;9.678;2023-04-07T03:32:03;98602.06;;;5.52;100.00
29903;BME280;30288;50.514;9.678;2023-04-07T03:34:08;98612.88;;;5.54;100.00
29903;BME280;30288;50.514;9.678;2023-04-07T03:36:13;98610.38;;;5.54;100.00
29903;BME280;30288;50.514;9.678;2023-04-07T03:38:20;98613.69;;;5.56;100.00
29903;BME280;30288;50.514;9.678;2023-04-07T03:40:30;98611.22;;;5.53;100.00
29903;BME280;30288;50.514;9.678;2023-04-07T03:42:39;98611.25;;;5.47;100.00
29903;BME280;30288;50.514;9.678;2023-04-07T03:44:47;98609.63;;;5.46;100.00
29903;BME280;30288;50.514;9.678;2023-04-07T03:46:52;98602.97;;;5.45;100.00
29903;BME280;30288;50.514;9.678;2023-04-07T03:48:59;98606.34;;;5.39;100.00
29903;BME280;30288;50.514;9.678;2023-04-07T03:51:06;98608.03;;;5.39;100.00
29903;BME280;30288;50.514;9.678;2023-04-07T03:53:12;98606.31;;;5.42;100.00
29903;BME280;30288;50.514;9.678;2023-04-07T03:55:19;98604.66;;;5.43;100.00
29903;BME280;30288;50.514;9.678;2023-04-07T03:57:27;98600.47;;;5.45;100.00
29903;BME280;30288;50.514;9.678;2023-04-07T03:59:35;98600.47;;;5.43;100.00
29903;BME280;30288;50.514;9.678;2023-04-07T04:01:41;98593.03;;;5.39;100.00
29903;BME280;30288;50.514;9.678;2023-04-07T04:03:49;98594.69;;;5.40;100.00
29903;BME280;30288;50.514;9.678;2023-04-07T04:06:00;98598.03;;;5.39;100.00
29903;BME280;30288;50.514;9.678;2023-04-07T04:08:06;98599.66;;;5.43;100.00
29903;BME280;30288;50.514;9.678;2023-04-07T04:10:14;98591.31;;;5.44;100.00
29903;BME280;30288;50.514;9.678;2023-04-07T04:12:23;98601.31;;;5.44;100.00
29903;BME280;30288;50.514;9.678;2023-04-07T04:14:40;98599.66;;;5.43;100.00
29903;BME280;30288;50.514;9.678;2023-04-07T04:16:48;98595.53;;;5.40;100.00
29903;BME280;30288;50.514;9.678;2023-04-07T04:19:16;98597.19;;;5.38;100.00
29903;BME280;30288;50.514;9.678;2023-04-07T04:21:21;98600.56;;;5.36;100.00
29903;BME280;30288;50.514;9.678;2023-04-07T04:23:28;98600.53;;;5.37;100.00
29903;BME280;30288;50.514;9.678;2023-04-07T04:25:34;98604.72;;;5.37;100.00
29903;BME280;30288;50.514;9.678;2023-04-07T04:27:42;98598.03;;;5.39;100.00
29903;BME280;30288;50.514;9.678;2023-04-07T04:30:02;98599.69;;;5.40;100.00
29903;BME280;30288;50.514;9.678;2023-04-07T04:32:34;98602.19;;;5.38;100.00
29903;BME280;30288;50.514;9.678;2023-04-07T04:34:40;98603.06;;;5.36;100.00
29903;BME280;30288;50.514;9.678;2023-04-07T04:36:46;98609.72;;;5.37;100.00
29903;BME280;30288;50.514;9.678;2023-04-07T04:38:53;98595.59;;;5.33;100.00
29903;BME280;30288;50.514;9.678;2023-04-07T04:40:59;98598.94;;;5.32;100.00
29903;BME280;30288;50.514;9.678;2023-04-07T04:43:05;98599.75;;;5.34;100.00
29903;BME280;30288;50.514;9.678;2023-04-07T04:45:16;98595.63;;;5.31;100.00
29903;BME280;30288;50.514;9.678;2023-04-07T04:47:22;98598.91;;;5.33;100.00
29903;BME280;30288;50.514;9.678;2023-04-07T04:49:28;98604.72;;;5.34;100.00
29903;BME280;30288;50.514;9.678;2023-04-07T04:51:36;98606.44;;;5.32;100.00
29903;BME280;30288;50.514;9.678;2023-04-07T04:53:47;98606.41;;;5.35;100.00
29903;BME280;30288;50.514;9.678;2023-04-07T04:55:55;98607.22;;;5.34;100.00
29903;BME280;30288;50.514;9.678;2023-04-07T04:58:19;98606.34;;;5.38;100.00
29903;BME280;30288;50.514;9.678;2023-04-07T05:00:31;98604.72;;;5.34;100.00
29903;BME280;30288;50.514;9.678;2023-04-07T05:02:39;98612.22;;;5.34;100.00
29903;BME280;30288;50.514;9.678;2023-04-07T05:04:45;98604.78;;;5.31;100.00
29903;BME280;30288;50.514;9.678;2023-04-07T05:06:57;98609.72;;;5.35;100.00
29903;BME280;30288;50.514;9.678;2023-04-07T05:09:05;98608.88;;;5.36;100.00
29903;BME280;30288;50.514;9.678;2023-04-07T05:11:16;98611.38;;;5.35;100.00
29903;BME280;30288;50.514;9.678;2023-04-07T05:13:25;98604.69;;;5.40;100.00
29903;BME280;30288;50.514;9.678;2023-04-07T05:15:39;98608.03;;;5.39;100.00
29903;BME280;30288;50.514;9.678;2023-04-07T05:17:47;98609.63;;;5.46;100.00
29903;BME280;30288;50.514;9.678;2023-04-07T05:19:57;98606.28;;;5.47;100.00
29903;BME280;30288;50.514;9.678;2023-04-07T05:22:20;98609.56;;;5.52;100.00
29903;BME280;30288;50.514;9.678;2023-04-07T05:24:27;98612.03;;;5.53;100.00
29903;BME280;30288;50.514;9.678;2023-04-07T05:26:35;98611.22;;;5.53;100.00
29903;BME280;30288;50.514;9.678;2023-04-07T05:28:40;98612.91;;;5.51;100.00
29903;BME280;30288;50.514;9.678;2023-04-07T05:30:53;98607.84;;;5.57;100.00
29903;BME280;30288;50.514;9.678;2023-04-07T05:33:03;98610.34;;;5.57;100.00
29903;BME280;30288;50.514;9.678;2023-04-07T05:35:22;98607.81;;;5.60;100.00
29903;BME280;30288;50.514;9.678;2023-04-07T05:37:30;98605.28;;;5.64;100.00
29903;BME280;30288;50.514;9.678;2023-04-07T05:39:38;98608.63;;;5.63;100.00
29903;BME280;30288;50.514;9.678;2023-04-07T05:41:46;98606.94;;;5.64;100.00
29903;BME280;30288;50.514;9.678;2023-04-07T05:43:53;98606.94;;;5.62;100.00
29903;BME280;30288;50.514;9.678;2023-04-07T05:46:03;98611.91;;;5.65;100.00
29903;BME280;30288;50.514;9.678;2023-04-07T05:48:14;98616.03;;;5.71;100.00
29903;BME280;30288;50.514;9.678;2023-04-07T05:50:21;98617.63;;;5.75;100.00
29903;BME280;30288;50.514;9.678;2023-04-07T05:52:27;98616.78;;;5.76;100.00
29903;BME280;30288;50.514;9.678;2023-04-07T05:54:43;98612.59;;;5.81;100.00
29903;BME280;30288;50.514;9.678;2023-04-07T05:56:49;98610.91;;;5.80;100.00
29903;BME280;30288;50.514;9.678;2023-04-07T05:58:56;98610.97;;;5.77;100.00
29903;BME280;30288;50.514;9.678;2023-04-07T06:01:06;98610.88;;;5.86;100.00
29903;BME280;30288;50.514;9.678;2023-04-07T06:03:11;98614.19;;;5.85;100.00
29903;BME280;30288;50.514;9.678;2023-04-07T06:05:26;98607.50;;;5.93;100.00
29903;BME280;30288;50.514;9.678;2023-04-07T06:07:32;98607.44;;;5.96;100.00
29903;BME280;30288;50.514;9.678;2023-04-07T06:09:37;98605.78;;;5.98;100.00
29903;BME280;30288;50.514;9.678;2023-04-07T06:11:44;98619.09;;;5.97;100.00
29903;BME280;30288;50.514;9.678;2023-04-07T06:13:50;98615.78;;;5.95;100.00
29903;BME280;30288;50.514;9.678;2023-04-07T06:15:55;98617.44;;;5.96;100.00
29903;BME280;30288;50.514;9.678;2023-04-07T06:18:03;98615.78;;;5.98;100.00
29903;BME280;30288;50.514;9.678;2023-04-07T06:20:09;98619.13;;;5.94;100.00
29903;BME280;30288;50.514;9.678;2023-04-07T06:22:15;98620.72;;;6.01;100.00
29903;BME280;30288;50.514;9.678;2023-04-07T06:24:20;98617.34;;;6.05;100.00
29903;BME280;30288;50.514;9.678;2023-04-07T06:26:26;98619.00;;;6.06;100.00
29903;BME280;30288;50.514;9.678;2023-04-07T06:28:32;98614.78;;;6.11;100.00
29903;BME280;30288;50.514;9.678;2023-04-07T06:30:37;98623.06;;;6.13;100.00
29903;BME280;30288;50.514;9.678;2023-04-07T06:32:45;98625.56;;;6.15;100.00
29903;BME280;30288;50.514;9.678;2023-04-07T06:34:53;98625.63;;;6.10;100.00
29903;BME280;30288;50.514;9.678;2023-04-07T06:36:58;98631.34;;;6.20;100.00
29903;BME280;30288;50.514;9.678;2023-04-07T06:39:05;98623.00;;;6.20;100.00
29903;BME280;30288;50.514;9.678;2023-04-07T06:41:10;98627.22;;;6.18;100.00
29903;BME280;30288;50.514;9.678;2023-04-07T06:43:18;98625.44;;;6.23;100.00
29903;BME280;30288;50.514;9.678;2023-04-07T06:45:29;98632.09;;;6.27;100.00
29903;BME280;30288;50.514;9.678;2023-04-07T06:47:34;98628.81;;;6.22;100.00
29903;BME280;30288;50.514;9.678;2023-04-07T06:49:39;98627.88;;;6.30;100.00
29903;BME280;30288;50.514;9.678;2023-04-07T06:51:47;98632.81;;;6.33;100.00
29903;BME280;30288;50.514;9.678;2023-04-07T06:53:53;98632.69;;;6.45;100.00
29903;BME280;30288;50.514;9.678;2023-04-07T06:56:05;98626.78;;;6.51;100.00
29903;BME280;30288;50.514;9.678;2023-04-07T06:58:11;98628.53;;;6.43;100.00
29903;BME280;30288;50.514;9.678;2023-04-07T07:00:17;98632.56;;;6.53;100.00
29903;BME280;30288;50.514;9.678;2023-04-07T07:02:24;98635.06;;;6.53;100.00
29903;BME280;30288;50.514;9.678;2023-04-07T07:04:29;98631.59;;;6.63;100.00
29903;BME280;30288;50.514;9.678;2023-04-07T07:06:35;98632.38;;;6.67;100.00
29903;BME280;30288;50.514;9.678;2023-04-07T07:08:43;98641.53;;;6.69;100.00
29903;BME280;30288;50.514;9.678;2023-04-07T07:10:48;98640.13;;;6.50;100.00
29903;BME280;30288;50.514;9.678;2023-04-07T07:12:53;98643.47;;;6.49;100.00
29903;BME280;30288;50.514;9.678;2023-04-07T07:14:58;98646.00;;;6.47;100.00
29903;BME280;30288;50.514;9.678;2023-04-07T07:17:04;98646.75;;;6.54;100.00
29903;BME280;30288;50.514;9.678;2023-04-07T07:19:09;98644.19;;;6.58;100.00
29903;BME280;30288;50.514;9.678;2023-04-07T07:21:17;98644.06;;;6.68;100.00
29903;BME280;30288;50.514;9.678;2023-04-07T07:23:22;98646.56;;;6.66;100.00
29903;BME280;30288;50.514;9.678;2023-04-07T07:25:30;98646.44;;;6.75;100.00
29903;BME280;30288;50.514;9.678;2023-04-07T07:27:35;98646.53;;;6.69;100.00
29903;BME280;30288;50.514;9.678;2023-04-07T07:29:40;98647.25;;;6.77;100.00
29903;BME280;30288;50.514;9.678;2023-04-07T07:31:46;98656.44;;;6.78;100.00
29903;BME280;30288;50.514;9.678;2023-04-07T07:33:52;98653.03;;;6.82;100.00
29903;BME280;30288;50.514;9.678;2023-04-07T07:35:57;98656.28;;;6.87;100.00
29903;BME280;30288;50.514;9.678;2023-04-07T07:38:02;98651.41;;;6.78;100.00
29903;BME280;30288;50.514;9.678;2023-04-07T07:40:08;98649.69;;;6.82;100.00
29903;BME280;30288;50.514;9.678;2023-04-07T07:42:16;98656.22;;;6.93;100.00
29903;BME280;30288;50.514;9.678;2023-04-07T07:44:22;98655.28;;;6.99;100.00
29903;BME280;30288;50.514;9.678;2023-04-07T07:46:27;98660.34;;;6.94;100.00
29903;BME280;30288;50.514;9.678;2023-04-07T07:48:32;98666.13;;;6.99;100.00
29903;BME280;30288;50.514;9.678;2023-04-07T07:50:38;98657.69;;;7.03;100.00
29903;BME280;30288;50.514;9.678;2023-04-07T07:52:43;98670.16;;;7.08;100.00
29903;BME280;30288;50.514;9.678;2023-04-07T07:54:50;98670.41;;;6.93;100.00
29903;BME280;30288;50.514;9.678;2023-04-07T07:56:55;98670.34;;;6.97;100.00
29903;BME280;30288;50.514;9.678;2023-04-07T07:59:04;98666.88;;;7.06;100.00
29903;BME280;30288;50.514;9.678;2023-04-07T08:01:10;98667.75;;;7.02;100.00
29903;BME280;30288;50.514;9.678;2023-04-07T08:03:15;98670.91;;;7.15;100.00
29903;BME280;30288;50.514;9.678;2023-04-07T08:05:24;98663.38;;;7.15;100.00
29903;BME280;30288;50.514;9.678;2023-04-07T08:07:29;98669.97;;;7.20;100.00
29903;BME280;30288;50.514;9.678;2023-04-07T08:09:34;98675.81;;;7.21;100.00
29903;BME280;30288;50.514;9.678;2023-04-07T08:11:39;98674.03;;;7.29;100.00
29903;BME280;30288;50.514;9.678;2023-04-07T08:13:45;98675.75;;;7.24;100.00
29903;BME280;30288;50.514;9.678;2023-04-07T08:15:53;98675.75;;;7.27;100.00
29903;BME280;30288;50.514;9.678;2023-04-07T08:17:59;98675.69;;;7.30;100.00
29903;BME280;30288;50.514;9.678;2023-04-07T08:20:08;98677.28;;;7.34;100.00
29903;BME280;30288;50.514;9.678;2023-04-07T08:22:14;98673.97;;;7.32;100.00
29903;BME280;30288;50.514;9.678;2023-04-07T08:24:20;98680.47;;;7.43;100.00
29903;BME280;30288;50.514;9.678;2023-04-07T08:26:26;98681.91;;;7.58;100.00
29903;BME280;30288;50.514;9.678;2023-04-07T08:28:31;98681.88;;;7.60;100.00
29903;BME280;30288;50.514;9.678;2023-04-07T08:30:36;98675.81;;;7.70;100.00
29903;BME280;30288;50.514;9.678;2023-04-07T08:32:44;98671.44;;;7.82;100.00
29903;BME280;30288;50.514;9.678;2023-04-07T08:34:50;98680.47;;;7.93;100.00
29903;BME280;30288;50.514;9.678;2023-04-07T08:36:55;98675.28;;;8.00;100.00
29903;BME280;30288;50.514;9.678;2023-04-07T08:39:00;98682.97;;;7.93;100.00
29903;BME280;30288;50.514;9.678;2023-04-07T08:41:10;98686.22;;;7.98;100.00
29903;BME280;30288;50.514;9.678;2023-04-07T08:43:18;98682.63;;;8.11;100.00
29903;BME280;30288;50.514;9.678;2023-04-07T08:45:24;98682.50;;;8.17;100.00
29903;BME280;30288;50.514;9.678;2023-04-07T08:47:32;98679.03;;;8.24;100.00
29903;BME280;30288;50.514;9.678;2023-04-07T08:49:41;98687.22;;;8.35;100.00
29903;BME280;30288;50.514;9.678;2023-04-07T08:51:49;98683.78;;;8.39;100.00
29903;BME280;30288;50.514;9.678;2023-04-07T08:54:03;98683.69;;;8.42;100.00
29903;BME280;30288;50.514;9.678;2023-04-07T08:56:11;98683.78;;;8.39;100.00
29903;BME280;30288;50.514;9.678;2023-04-07T08:58:17;98681.94;;;8.47;100.00
29903;BME280;30288;50.514;9.678;2023-04-07T09:00:23;98678.31;;;8.60;100.00
29903;BME280;30288;50.514;9.678;2023-04-07T09:02:29;98687.44;;;8.64;100.00
29903;BME280;30288;50.514;9.678;2023-04-07T09:04:35;98689.69;;;8.76;100.00
29903;BME280;30288;50.514;9.678;2023-04-07T09:06:43;98688.97;;;8.70;100.00
29903;BME280;30288;50.514;9.678;2023-04-07T09:08:48;98683.75;;;8.79;100.00
29903;BME280;30288;50.514;9.678;2023-04-07T09:10:53;98693.53;;;8.93;100.00
29903;BME280;30288;50.514;9.678;2023-04-07T09:12:59;98692.31;;;9.09;100.00
29903;BME280;30288;50.514;9.678;2023-04-07T09:15:06;98692.50;;;9.00;100.00
29903;BME280;30288;50.514;9.678;2023-04-07T09:17:12;98689.78;;;9.10;100.00
29903;BME280;30288;50.514;9.678;2023-04-07T09:19:17;98686.81;;;9.30;100.00
29903;BME280;30288;50.514;9.678;2023-04-07T09:21:23;98689.47;;;9.22;100.00
29903;BME280;30288;50.514;9.678;2023-04-07T09:23:33;98687.16;;;9.15;100.00
29903;BME280;30288;50.514;9.678;2023-04-07T09:25:38;98692.19;;;9.15;100.00
29903;BME280;30288;50.514;9.678;2023-04-07T09:27:58;98687.53;;;9.35;100.00
29903;BME280;30288;50.514;9.678;2023-04-07T09:30:10;98685.66;;;9.42;100.00
29903;BME280;30288;50.514;9.678;2023-04-07T09:32:34;98691.84;;;9.30;100.00
29903;BME280;30288;50.514;9.678;2023-04-07T09:34:41;98692.25;;;9.12;100.00
29903;BME280;30288;50.514;9.678;2023-04-07T09:36:46;98696.28;;;9.17;100.00
29903;BME280;30288;50.514;9.678;2023-04-07T09:38:54;98698.88;;;9.16;100.00
29903;BME280;30288;50.514;9.678;2023-04-07T09:41:05;98696.28;;;9.19;100.00
29903;BME280;30288;50.514;9.678;2023-04-07T09:43:15;98695.41;;;9.20;100.00
29903;BME280;30288;50.514;9.678;2023-04-07T09:45:25;98695.69;;;9.08;100.00
29903;BME280;30288;50.514;9.678;2023-04-07T09:47:33;98693.97;;;9.10;100.00
29903;BME280;30288;50.514;9.678;2023-04-07T09:49:49;98692.44;;;9.03;100.00
29903;BME280;30288;50.514;9.678;2023-04-07T09:51:57;98692.31;;;9.09;100.00
29903;BME280;30288;50.514;9.678;2023-04-07T09:54:08;98693.84;;;9.16;100.00
29903;BME280;30288;50.514;9.678;2023-04-07T09:56:15;98695.28;;;9.26;100.00
29903;BME280;30288;50.514;9.678;2023-04-07T09:58:20;98693.09;;;9.46;100.00
29903;BME280;30288;50.514;9.678;2023-04-07T10:00:26;98690.16;;;9.29;100.00
29903;BME280;30288;50.514;9.678;2023-04-07T10:02:31;98696.50;;;9.45;100.00
29903;BME280;30288;50.514;9.678;2023-04-07T10:04:37;98694.66;;;9.84;100.00
29903;BME280;30288;50.514;9.678;2023-04-07T10:06:44;98697.38;;;9.77;100.00
29903;BME280;30288;50.514;9.678;2023-04-07T10:08:49;98699.91;;;9.77;100.00
29903;BME280;30288;50.514;9.678;2023-04-07T10:10:58;98698.28;;;9.74;100.00
29903;BME280;30288;50.514;9.678;2023-04-07T10:13:04;98703.38;;;9.71;100.00
29903;BME280;30288;50.514;9.678;2023-04-07T10:15:12;98704.22;;;9.72;100.00
29903;BME280;30288;50.514;9.678;2023-04-07T10:17:18;98711.06;;;9.66;100.00
29903;BME280;30288;50.514;9.678;2023-04-07T10:19:25;98701.22;;;9.57;100.00
29903;BME280;30288;50.514;9.678;2023-04-07T10:21:37;98711.19;;;9.60;100.00
29903;BME280;30288;50.514;9.678;2023-04-07T10:23:50;98708.75;;;9.57;100.00
29903;BME280;30288;50.514;9.678;2023-04-07T10:26:01;98704.44;;;9.62;100.00
29903;BME280;30288;50.514;9.678;2023-04-07T10:28:08;98707.91;;;9.58;100.00
29903;BME280;30288;50.514;9.678;2023-04-07T10:30:21;98698.59;;;9.27;100.00
29903;BME280;30288;50.514;9.678;2023-04-07T10:32:27;98699.81;;;9.46;100.00
29903;BME280;30288;50.514;9.678;2023-04-07T10:34:58;98709.25;;;9.36;100.00
29903;BME280;30288;50.514;9.678;2023-04-07T10:37:11;98705.38;;;9.23;100.00
29903;BME280;30288;50.514;9.678;2023-04-07T10:39:20;98700.97;;;8.96;100.00
29903;BME280;30288;50.514;9.678;2023-04-07T10:41:37;98703.81;;;8.81;100.00
29903;BME280;30288;50.514;9.678;2023-04-07T10:43:43;98706.44;;;9.14;100.00
29903;BME280;30288;50.514;9.678;2023-04-07T10:45:56;98710.22;;;9.66;100.00
29903;BME280;30288;50.514;9.678;2023-04-07T10:48:09;98711.50;;;9.82;100.00
29903;BME280;30288;50.514;9.678;2023-04-07T10:50:20;98711.34;;;9.88;100.00
29903;BME280;30288;50.514;9.678;2023-04-07T10:52:26;98717.28;;;9.86;100.00
29903;BME280;30288;50.514;9.678;2023-04-07T10:54:32;98720.41;;;9.94;100.00
29903;BME280;30288;50.514;9.678;2023-04-07T10:57:08;98716.88;;;10.01;100.00
29903;BME280;30288;50.514;9.678;2023-04-07T10:59:15;98714.53;;;9.95;100.00
29903;BME280;30288;50.514;9.678;2023-04-07T11:01:29;98713.47;;;10.36;100.00
29903;BME280;30288;50.514;9.678;2023-04-07T11:03:37;98713.53;;;10.64;100.00
29903;BME280;30288;50.514;9.678;2023-04-07T11:05:43;98716.47;;;10.78;100.00
29903;BME280;30288;50.514;9.678;2023-04-07T11:07:53;98719.19;;;11.00;100.00
29903;BME280;30288;50.514;9.678;2023-04-07T11:10:11;98716.63;;;11.27;100.00
29903;BME280;30288;50.514;9.678;2023-04-07T11:12:25;98716.16;;;11.43;100.00
29903;BME280;30288;50.514;9.678;2023-04-07T11:14:33;98716.75;;;11.51;100.00
29903;BME280;30288;50.514;9.678;2023-04-07T11:16:41;98717.03;;;11.15;100.00
29903;BME280;30288;50.514;9.678;2023-04-07T11:18:47;98725.19;;;11.23;100.00
29903;BME280;30288;50.514;9.678;2023-04-07T11:20:55;98720.72;;;11.04;100.00
29903;BME280;30288;50.514;9.678;2023-04-07T11:23:00;98720.78;;;11.02;100.00